sensor_id;sensor_type;location;lat;lon;timestamp;pressure;altitude;pressure_sealevel;temperature;humidity
11329;BME280;5719;42.714;23.732;2024-01-07T00:01:46;92907.94;;;8.74;100.00
11329;BME280;5719;42.714;23.732;2024-01-07T00:04:12;92910.66;;;8.82;100.00
11329;BME280;5719;42.714;23.732;2024-01-07T00:06:40;92914.47;;;8.88;100.00
11329;BME280;5719;42.714;23.732;2024-01-07T00:09:07;92901.69;;;8.86;100.00
11329;BME280;5719;42.714;23.732;2024-01-07T00:11:34;92903.31;;;8.97;100.00
11329;BME280;5719;42.714;23.732;2024-01-07T00:14:01;92895.44;;;8.99;100.00
11329;BME280;5719;42.714;23.732;2024-01-07T00:16:29;92887.56;;;9.00;100.00
11329;BME280;5719;42.714;23.732;2024-01-07T00:18:56;92888.94;;;8.95;100.00
11329;BME280;5719;42.714;23.732;2024-01-07T00:21:23;92884.44;;;8.97;100.00
11329;BME280;5719;42.714;23.732;2024-01-07T00:23:49;92888.66;;;8.98;100.00
11329;BME280;5719;42.714;23.732;2024-01-07T00:26:16;92884.88;;;8.92;100.00
11329;BME280;5719;42.714;23.732;2024-01-07T00:28:43;92899.50;;;9.01;100.00
11329;BME280;5719;42.714;23.732;2024-01-07T00:31:11;92884.06;;;8.92;100.00
11329;BME280;5719;42.714;23.732;2024-01-07T00:33:40;92894.50;;;9.00;100.00
11329;BME280;5719;42.714;23.732;2024-01-07T00:36:07;92884.84;;;9.02;100.00
11329;BME280;5719;42.714;23.732;2024-01-07T00:38:33;92873.56;;;9.12;100.00
11329;BME280;5719;42.714;23.732;2024-01-07T00:41:00;92859.53;;;9.24;100.00
11329;BME280;5719;42.714;23.732;2024-01-07T00:43:27;92848.59;;;9.40;100.00
11329;BME280;5719;42.714;23.732;2024-01-07T00:45:54;92848.41;;;9.51;100.00
11329;BME280;5719;42.714;23.732;2024-01-07T00:48:20;92842.31;;;9.52;100.00
11329;BME280;5719;42.714;23.732;2024-01-07T00:50:49;92851.78;;;9.61;100.00
11329;BME280;5719;42.714;23.732;2024-01-07T00:53:15;92835.72;;;9.67;100.00
11329;BME280;5719;42.714;23.732;2024-01-07T00:55:42;92839.09;;;9.68;100.00
11329;BME280;5719;42.714;23.732;2024-01-07T00:58:09;92829.59;;;9.68;100.00
11329;BME280;5719;42.714;23.732;2024-01-07T01:00:36;92804.75;;;9.67;100.00
11329;BME280;5719;42.714;23.732;2024-01-07T01:03:02;92804.88;;;9.66;100.00
11329;BME280;5719;42.714;23.732;2024-01-07T01:05:29;92797.31;;;9.64;100.00
11329;BME280;5719;42.714;23.732;2024-01-07T01:07:57;92807.75;;;9.63;100.00
11329;BME280;5719;42.714;23.732;2024-01-07T01:10:24;92797.34;;;9.55;100.00
11329;BME280;5719;42.714;23.732;2024-01-07T01:12:51;92801.66;;;9.64;100.00
11329;BME280;5719;42.714;23.732;2024-01-07T01:15:19;92797.44;;;9.63;100.00
11329;BME280;5719;42.714;23.732;2024-01-07T01:17:46;92779.28;;;9.55;100.00
11329;BME280;5719;42.714;23.732;2024-01-07T01:20:13;92783.38;;;9.57;100.00
11329;BME280;5719;42.714;23.732;2024-01-07T01:22:40;92781.72;;;9.56;100.00
11329;BME280;5719;42.714;23.732;2024-01-07T01:25:08;92762.63;;;9.49;100.00
11329;BME280;5719;42.714;23.732;2024-01-07T01:27:35;92768.44;;;9.51;100.00
11329;BME280;5719;42.714;23.732;2024-01-07T01:30:02;92769.44;;;9.50;100.00
11329;BME280;5719;42.714;23.732;2024-01-07T01:32:29;92769.25;;;9.52;100.00
11329;BME280;5719;42.714;23.732;2024-01-07T01:34:56;92760.34;;;9.46;100.00
11329;BME280;5719;42.714;23.732;2024-01-07T01:37:23;92764.53;;;9.47;100.00
11329;BME280;5719;42.714;23.732;2024-01-07T01:39:49;92756.59;;;9.58;100.00
11329;BME280;5719;42.714;23.732;2024-01-07T01:42:17;92755.34;;;9.62;100.00
11329;BME280;5719;42.714;23.732;2024-01-07T01:44:44;92754.25;;;9.65;100.00
11329;BME280;5719;42.714;23.732;2024-01-07T01:47:11;92734.41;;;9.65;100.00
11329;BME280;5719;42.714;23.732;2024-01-07T01:49:38;92734.94;;;9.69;100.00
11329;BME280;5719;42.714;23.732;2024-01-07T01:52:05;92727.03;;;9.70;100.00
11329;BME280;5719;42.714;23.732;2024-01-07T01:54:33;92723.81;;;9.68;100.00
11329;BME280;5719;42.714;23.732;2024-01-07T01:56:59;92716.72;;;9.70;100.00
11329;BME280;5719;42.714;23.732;2024-01-07T01:59:28;92714.31;;;9.69;100.00
11329;BME280;5719;42.714;23.732;2024-01-07T02:01:55;92712.50;;;9.69;100.00
11329;BME280;5719;42.714;23.732;2024-01-07T02:04:22;92687.22;;;9.55;100.00
11329;BME280;5719;42.714;23.732;2024-01-07T02:06:49;92701.84;;;9.64;100.00
11329;BME280;5719;42.714;23.732;2024-01-07T02:09:15;92709.66;;;9.72;100.00
11329;BME280;5719;42.714;23.732;2024-01-07T02:11:42;92699.59;;;9.69;100.00
11329;BME280;5719;42.714;23.732;2024-01-07T02:14:09;92692.34;;;9.65;100.00
11329;BME280;5719;42.714;23.732;2024-01-07T02:16:37;92681.34;;;9.63;100.00
11329;BME280;5719;42.714;23.732;2024-01-07T02:19:05;92654.94;;;9.51;100.00
11329;BME280;5719;42.714;23.732;2024-01-07T02:21:32;92622.63;;;9.39;100.00
11329;BME280;5719;42.714;23.732;2024-01-07T02:24:05;92664.53;;;9.59;100.00
11329;BME280;5719;42.714;23.732;2024-01-07T02:26:31;92656.78;;;9.59;100.00
11329;BME280;5719;42.714;23.732;2024-01-07T02:28:58;92649.22;;;9.57;100.00
11329;BME280;5719;42.714;23.732;2024-01-07T02:31:25;92640.38;;;9.60;100.00
11329;BME280;5719;42.714;23.732;2024-01-07T02:33:52;92629.53;;;9.56;100.00
11329;BME280;5719;42.714;23.732;2024-01-07T02:36:17;92623.44;;;9.57;100.00
11329;BME280;5719;42.714;23.732;2024-01-07T02:38:44;92630.78;;;9.52;100.00
11329;BME280;5719;42.714;23.732;2024-01-07T02:41:12;92624.81;;;9.52;100.00
11329;BME280;5719;42.714;23.732;2024-01-07T02:43:39;92624.81;;;9.52;100.00
11329;BME280;5719;42.714;23.732;2024-01-07T02:46:07;92626.25;;;9.46;100.00
11329;BME280;5719;42.714;23.732;2024-01-07T02:48:33;92633.97;;;9.46;100.00
11329;BME280;5719;42.714;23.732;2024-01-07T02:51:00;92642.78;;;9.44;100.00
11329;BME280;5719;42.714;23.732;2024-01-07T02:53:28;92643.63;;;9.44;100.00
11329;BME280;5719;42.714;23.732;2024-01-07T02:55:55;92638.69;;;9.33;100.00
11329;BME280;5719;42.714;23.732;2024-01-07T02:58:23;92652.38;;;9.33;100.00
11329;BME280;5719;42.714;23.732;2024-01-07T03:00:50;92642.06;;;9.33;100.00
11329;BME280;5719;42.714;23.732;2024-01-07T03:03:17;92639.66;;;9.32;100.00
11329;BME280;5719;42.714;23.732;2024-01-07T03:05:44;92628.53;;;9.31;100.00
11329;BME280;5719;42.714;23.732;2024-01-07T03:08:10;92637.13;;;9.40;100.00
11329;BME280;5719;42.714;23.732;2024-01-07T03:10:37;92631.69;;;9.43;100.00
11329;BME280;5719;42.714;23.732;2024-01-07T03:13:04;92616.50;;;9.40;100.00
11329;BME280;5719;42.714;23.732;2024-01-07T03:15:32;92627.84;;;9.47;100.00
11329;BME280;5719;42.714;23.732;2024-01-07T03:17:59;92608.91;;;9.56;100.00
11329;BME280;5719;42.714;23.732;2024-01-07T03:20:26;92621.50;;;9.59;100.00
11329;BME280;5719;42.714;23.732;2024-01-07T03:22:53;92615.22;;;9.62;100.00
11329;BME280;5719;42.714;23.732;2024-01-07T03:25:20;92604.44;;;9.66;100.00
11329;BME280;5719;42.714;23.732;2024-01-07T03:27:47;92611.53;;;9.64;100.00
11329;BME280;5719;42.714;23.732;2024-01-07T03:30:14;92605.13;;;9.68;100.00
11329;BME280;5719;42.714;23.732;2024-01-07T03:32:42;92602.06;;;9.73;100.00
11329;BME280;5719;42.714;23.732;2024-01-07T03:35:09;92604.44;;;9.66;100.00
11329;BME280;5719;42.714;23.732;2024-01-07T03:37:36;92608.16;;;9.64;100.00
11329;BME280;5719;42.714;23.732;2024-01-07T03:40:03;92602.19;;;9.63;100.00
11329;BME280;5719;42.714;23.732;2024-01-07T03:42:30;92615.72;;;9.65;100.00
11329;BME280;5719;42.714;23.732;2024-01-07T03:44:57;92609.63;;;9.66;100.00
11329;BME280;5719;42.714;23.732;2024-01-07T03:47:24;92612.19;;;9.66;100.00
11329;BME280;5719;42.714;23.732;2024-01-07T03:49:52;92610.94;;;9.70;100.00
11329;BME280;5719;42.714;23.732;2024-01-07T03:52:18;92609.97;;;9.71;100.00
11329;BME280;5719;42.714;23.732;2024-01-07T03:54:45;92613.00;;;9.67;100.00
11329;BME280;5719;42.714;23.732;2024-01-07T03:57:12;92606.22;;;9.66;100.00
11329;BME280;5719;42.714;23.732;2024-01-07T03:59:39;92606.22;;;9.66;100.00
11329;BME280;5719;42.714;23.732;2024-01-07T04:02:06;92602.81;;;9.65;100.00
11329;BME280;5719;42.714;23.732;2024-01-07T04:04:33;92600.53;;;9.62;100.00
11329;BME280;5719;42.714;23.732;2024-01-07T04:07:01;92593.50;;;9.64;100.00
11329;BME280;5719;42.714;23.732;2024-01-07T04:09:28;92592.38;;;9.67;100.00
11329;BME280;5719;42.714;23.732;2024-01-07T04:11:54;92581.16;;;9.76;100.00
11329;BME280;5719;42.714;23.732;2024-01-07T04:14:21;92578.25;;;9.79;100.00
11329;BME280;5719;42.714;23.732;2024-01-07T04:16:48;92580.84;;;9.79;100.00
11329;BME280;5719;42.714;23.732;2024-01-07T04:19:15;92570.03;;;9.75;100.00
11329;BME280;5719;42.714;23.732;2024-01-07T04:21:45;92559.03;;;9.73;100.00
11329;BME280;5719;42.714;23.732;2024-01-07T04:24:14;92552.91;;;9.74;100.00
11329;BME280;5719;42.714;23.732;2024-01-07T04:26:40;92561.28;;;9.76;100.00
11329;BME280;5719;42.714;23.732;2024-01-07T04:29:07;92557.25;;;9.74;100.00
11329;BME280;5719;42.714;23.732;2024-01-07T04:31:34;92540.47;;;9.70;100.00
11329;BME280;5719;42.714;23.732;2024-01-07T04:34:01;92546.31;;;9.80;100.00
11329;BME280;5719;42.714;23.732;2024-01-07T04:36:27;92536.53;;;9.83;100.00
11329;BME280;5719;42.714;23.732;2024-01-07T04:38:55;92539.13;;;9.92;100.00
11329;BME280;5719;42.714;23.732;2024-01-07T04:41:24;92538.97;;;9.93;100.00
11329;BME280;5719;42.714;23.732;2024-01-07T04:43:51;92536.91;;;9.97;100.00
11329;BME280;5719;42.714;23.732;2024-01-07T04:46:18;92502.00;;;9.59;100.00
11329;BME280;5719;42.714;23.732;2024-01-07T04:48:45;92525.22;;;9.59;100.00
11329;BME280;5719;42.714;23.732;2024-01-07T04:51:11;92519.78;;;9.36;100.00
11329;BME280;5719;42.714;23.732;2024-01-07T04:53:38;92529.84;;;9.21;100.00
11329;BME280;5719;42.714;23.732;2024-01-07T04:56:06;92530.69;;;9.30;100.00
11329;BME280;5719;42.714;23.732;2024-01-07T04:58:34;92542.53;;;9.41;100.00
11329;BME280;5719;42.714;23.732;2024-01-07T05:01:01;92543.41;;;9.49;100.00
11329;BME280;5719;42.714;23.732;2024-01-07T05:03:27;92530.81;;;9.46;100.00
11329;BME280;5719;42.714;23.732;2024-01-07T05:05:54;92543.09;;;9.52;100.00
11329;BME280;5719;42.714;23.732;2024-01-07T05:08:21;92545.22;;;9.57;100.00
11329;BME280;5719;42.714;23.732;2024-01-07T05:10:48;92550.53;;;9.55;100.00
11329;BME280;5719;42.714;23.732;2024-01-07T05:13:14;92561.00;;;9.54;100.00
11329;BME280;5719;42.714;23.732;2024-01-07T05:15:43;92561.09;;;9.44;100.00
11329;BME280;5719;42.714;23.732;2024-01-07T05:18:10;92565.53;;;9.34;100.00
11329;BME280;5719;42.714;23.732;2024-01-07T05:20:37;92569.00;;;9.25;100.00
11329;BME280;5719;42.714;23.732;2024-01-07T05:23:04;92565.38;;;9.35;100.00
11329;BME280;5719;42.714;23.732;2024-01-07T05:25:31;92569.06;;;9.33;100.00
11329;BME280;5719;42.714;23.732;2024-01-07T05:27:58;92582.41;;;9.28;100.00
11329;BME280;5719;42.714;23.732;2024-01-07T05:30:24;92548.47;;;8.80;100.00
11329;BME280;5719;42.714;23.732;2024-01-07T05:32:52;92578.38;;;8.91;100.00
11329;BME280;5719;42.714;23.732;2024-01-07T05:35:19;92585.16;;;8.92;100.00
11329;BME280;5719;42.714;23.732;2024-01-07T05:37:46;92596.03;;;8.85;100.00
11329;BME280;5719;42.714;23.732;2024-01-07T05:40:13;92593.19;;;8.61;100.00
11329;BME280;5719;42.714;23.732;2024-01-07T05:42:40;92599.38;;;8.51;100.00
11329;BME280;5719;42.714;23.732;2024-01-07T05:45:07;92590.38;;;8.37;100.00
11329;BME280;5719;42.714;23.732;2024-01-07T05:47:33;92597.38;;;8.45;100.00
11329;BME280;5719;42.714;23.732;2024-01-07T05:50:02;92605.81;;;8.37;100.00
11329;BME280;5719;42.714;23.732;2024-01-07T05:52:29;92594.19;;;8.33;100.00
11329;BME280;5719;42.714;23.732;2024-01-07T05:54:56;92595.06;;;8.42;100.00
11329;BME280;5719;42.714;23.732;2024-01-07T05:57:23;92587.00;;;8.54;100.00
11329;BME280;5719;42.714;23.732;2024-01-07T05:59:50;92569.56;;;8.48;100.00
11329;BME280;5719;42.714;23.732;2024-01-07T06:02:17;92576.56;;;8.56;100.00
11329;BME280;5719;42.714;23.732;2024-01-07T06:04:44;92583.03;;;8.60;100.00
11329;BME280;5719;42.714;23.732;2024-01-07T06:07:12;92588.34;;;8.58;100.00
11329;BME280;5719;42.714;23.732;2024-01-07T06:09:39;92592.78;;;8.66;100.00
11329;BME280;5719;42.714;23.732;2024-01-07T06:12:06;92591.00;;;8.66;100.00
11329;BME280;5719;42.714;23.732;2024-01-07T06:14:33;92593.44;;;8.68;100.00
11329;BME280;5719;42.714;23.732;2024-01-07T06:17:00;92587.53;;;8.58;100.00
11329;BME280;5719;42.714;23.732;2024-01-07T06:19:26;92590.09;;;8.58;100.00
11329;BME280;5719;42.714;23.732;2024-01-07T06:21:53;92593.50;;;8.58;100.00
11329;BME280;5719;42.714;23.732;2024-01-07T06:24:21;92604.03;;;8.65;100.00
11329;BME280;5719;42.714;23.732;2024-01-07T06:26:48;92598.06;;;8.64;100.00
11329;BME280;5719;42.714;23.732;2024-01-07T06:29:15;92598.94;;;8.55;100.00
11329;BME280;5719;42.714;23.732;2024-01-07T06:31:45;92597.16;;;8.28;100.00
11329;BME280;5719;42.714;23.732;2024-01-07T06:34:12;92599.78;;;8.19;100.00
11329;BME280;5719;42.714;23.732;2024-01-07T06:36:39;92581.16;;;7.98;100.00
11329;BME280;5719;42.714;23.732;2024-01-07T06:39:06;92617.88;;;8.27;100.00
11329;BME280;5719;42.714;23.732;2024-01-07T06:41:35;92606.63;;;8.38;100.00
11329;BME280;5719;42.714;23.732;2024-01-07T06:44:02;92595.03;;;8.51;100.00
11329;BME280;5719;42.714;23.732;2024-01-07T06:46:28;92599.03;;;8.63;100.00
11329;BME280;5719;42.714;23.732;2024-01-07T06:48:55;92598.59;;;8.68;100.00
11329;BME280;5719;42.714;23.732;2024-01-07T06:51:22;92588.50;;;8.74;100.00
11329;BME280;5719;42.714;23.732;2024-01-07T06:53:49;92590.50;;;8.80;100.00
11329;BME280;5719;42.714;23.732;2024-01-07T06:56:16;92573.13;;;8.82;100.00
11329;BME280;5719;42.714;23.732;2024-01-07T06:58:44;92585.44;;;8.89;100.00
11329;BME280;5719;42.714;23.732;2024-01-07T07:01:11;92587.03;;;8.90;100.00
11329;BME280;5719;42.714;23.732;2024-01-07T07:03:40;92582.09;;;8.96;100.00
11329;BME280;5719;42.714;23.732;2024-01-07T07:06:06;92583.53;;;9.08;100.00
11329;BME280;5719;42.714;23.732;2024-01-07T07:08:33;92566.59;;;9.06;100.00
11329;BME280;5719;42.714;23.732;2024-01-07T07:11:00;92591.03;;;9.19;100.00
11329;BME280;5719;42.714;23.732;2024-01-07T07:13:27;92592.16;;;9.17;100.00
11329;BME280;5719;42.714;23.732;2024-01-07T07:15:55;92582.78;;;9.16;100.00
11329;BME280;5719;42.714;23.732;2024-01-07T07:18:22;92582.63;;;9.35;100.00
11329;BME280;5719;42.714;23.732;2024-01-07T07:20:49;92580.38;;;9.40;100.00
11329;BME280;5719;42.714;23.732;2024-01-07T07:23:16;92596.09;;;9.29;100.00
11329;BME280;5719;42.714;23.732;2024-01-07T07:25:43;92586.38;;;9.41;100.00
11329;BME280;5719;42.714;23.732;2024-01-07T07:28:10;92588.31;;;9.64;100.00
11329;BME280;5719;42.714;23.732;2024-01-07T07:30:37;92599.97;;;9.68;100.00
11329;BME280;5719;42.714;23.732;2024-01-07T07:33:05;92598.53;;;10.00;100.00
11329;BME280;5719;42.714;23.732;2024-01-07T07:35:32;92606.59;;;10.56;100.00
11329;BME280;5719;42.714;23.732;2024-01-07T07:37:59;92580.84;;;10.97;100.00
11329;BME280;5719;42.714;23.732;2024-01-07T07:40:26;92597.75;;;11.65;100.00
11329;BME280;5719;42.714;23.732;2024-01-07T07:42:53;92602.44;;;11.62;100.00
11329;BME280;5719;42.714;23.732;2024-01-07T07:45:19;92597.34;;;12.25;100.00
11329;BME280;5719;42.714;23.732;2024-01-07T07:47:46;92592.69;;;12.67;99.50
11329;BME280;5719;42.714;23.732;2024-01-07T07:50:14;92600.25;;;12.77;96.03
11329;BME280;5719;42.714;23.732;2024-01-07T07:52:41;92603.47;;;13.18;98.55
11329;BME280;5719;42.714;23.732;2024-01-07T07:55:09;92594.50;;;13.51;94.36
11329;BME280;5719;42.714;23.732;2024-01-07T07:57:36;92586.75;;;13.43;94.17
11329;BME280;5719;42.714;23.732;2024-01-07T08:00:04;92577.56;;;13.55;91.38
11329;BME280;5719;42.714;23.732;2024-01-07T08:02:31;92584.88;;;13.74;90.33
11329;BME280;5719;42.714;23.732;2024-01-07T08:04:58;92586.34;;;13.54;90.20
11329;BME280;5719;42.714;23.732;2024-01-07T08:07:26;92583.25;;;13.36;88.22
11329;BME280;5719;42.714;23.732;2024-01-07T08:09:53;92580.56;;;13.44;90.34
11329;BME280;5719;42.714;23.732;2024-01-07T08:12:22;92567.00;;;13.80;90.18
11329;BME280;5719;42.714;23.732;2024-01-07T08:14:49;92579.16;;;14.31;86.74
11329;BME280;5719;42.714;23.732;2024-01-07T08:17:16;92580.78;;;14.61;84.55
11329;BME280;5719;42.714;23.732;2024-01-07T08:19:43;92591.69;;;15.01;83.24
11329;BME280;5719;42.714;23.732;2024-01-07T08:22:10;92592.25;;;15.53;81.93
11329;BME280;5719;42.714;23.732;2024-01-07T08:24:39;92578.69;;;16.07;76.93
11329;BME280;5719;42.714;23.732;2024-01-07T08:27:06;92578.09;;;16.60;74.88
11329;BME280;5719;42.714;23.732;2024-01-07T08:29:33;92577.97;;;17.29;71.82
11329;BME280;5719;42.714;23.732;2024-01-07T08:32:00;92583.13;;;17.90;67.98
11329;BME280;5719;42.714;23.732;2024-01-07T08:34:27;92581.13;;;18.31;65.84
11329;BME280;5719;42.714;23.732;2024-01-07T08:36:54;92593.41;;;17.85;63.08
11329;BME280;5719;42.714;23.732;2024-01-07T08:39:21;92589.09;;;16.56;68.11
11329;BME280;5719;42.714;23.732;2024-01-07T08:41:50;92565.03;;;16.60;68.84
11329;BME280;5719;42.714;23.732;2024-01-07T08:44:17;92579.59;;;17.30;63.64
11329;BME280;5719;42.714;23.732;2024-01-07T08:46:44;92583.72;;;17.66;63.63
11329;BME280;5719;42.714;23.732;2024-01-07T08:49:12;92573.47;;;17.90;64.10
11329;BME280;5719;42.714;23.732;2024-01-07T08:51:39;92576.69;;;17.79;62.50
11329;BME280;5719;42.714;23.732;2024-01-07T08:54:06;92579.75;;;17.15;62.11
11329;BME280;5719;42.714;23.732;2024-01-07T08:56:32;92572.69;;;18.03;63.22
11329;BME280;5719;42.714;23.732;2024-01-07T08:59:01;92583.47;;;18.85;56.04
11329;BME280;5719;42.714;23.732;2024-01-07T09:01:29;92586.03;;;19.49;56.18
11329;BME280;5719;42.714;23.732;2024-01-07T09:03:56;92585.38;;;19.61;52.05
11329;BME280;5719;42.714;23.732;2024-01-07T09:06:23;92582.00;;;19.53;52.45
11329;BME280;5719;42.714;23.732;2024-01-07T09:08:50;92578.97;;;18.99;52.58
11329;BME280;5719;42.714;23.732;2024-01-07T09:11:19;92571.25;;;18.33;52.50
11329;BME280;5719;42.714;23.732;2024-01-07T09:13:45;92576.13;;;19.07;52.75
11329;BME280;5719;42.714;23.732;2024-01-07T09:16:15;92572.50;;;19.08;53.27
11329;BME280;5719;42.714;23.732;2024-01-07T09:18:42;92576.78;;;18.96;53.38
11329;BME280;5719;42.714;23.732;2024-01-07T09:21:10;92567.91;;;18.97;51.57
11329;BME280;5719;42.714;23.732;2024-01-07T09:23:37;92565.69;;;19.51;50.42
11329;BME280;5719;42.714;23.732;2024-01-07T09:26:04;92576.03;;;19.71;48.24
11329;BME280;5719;42.714;23.732;2024-01-07T09:28:30;92568.16;;;19.33;51.76
11329;BME280;5719;42.714;23.732;2024-01-07T09:30:57;92560.06;;;20.04;49.65
11329;BME280;5719;42.714;23.732;2024-01-07T09:33:25;92561.03;;;20.59;49.05
11329;BME280;5719;42.714;23.732;2024-01-07T09:35:52;92548.00;;;20.03;48.22
11329;BME280;5719;42.714;23.732;2024-01-07T09:38:20;92548.97;;;20.33;46.13
11329;BME280;5719;42.714;23.732;2024-01-07T09:40:47;92546.59;;;18.80;49.30
11329;BME280;5719;42.714;23.732;2024-01-07T09:43:14;92551.59;;;19.01;49.78
11329;BME280;5719;42.714;23.732;2024-01-07T09:45:42;92542.69;;;19.78;47.03
11329;BME280;5719;42.714;23.732;2024-01-07T09:48:11;92550.09;;;20.80;45.39
11329;BME280;5719;42.714;23.732;2024-01-07T09:50:39;92545.66;;;20.99;44.17
11329;BME280;5719;42.714;23.732;2024-01-07T09:53:07;92547.25;;;19.96;46.31
11329;BME280;5719;42.714;23.732;2024-01-07T09:55:39;92552.66;;;19.70;45.98
11329;BME280;5719;42.714;23.732;2024-01-07T09:58:07;92550.66;;;19.27;47.79
11329;BME280;5719;42.714;23.732;2024-01-07T10:00:34;92550.16;;;17.69;51.83
11329;BME280;5719;42.714;23.732;2024-01-07T10:03:02;92545.69;;;17.56;52.43
11329;BME280;5719;42.714;23.732;2024-01-07T10:05:31;92546.72;;;18.21;50.06
11329;BME280;5719;42.714;23.732;2024-01-07T10:08:00;92545.91;;;18.34;50.32
11329;BME280;5719;42.714;23.732;2024-01-07T10:10:28;92542.91;;;19.07;48.28
11329;BME280;5719;42.714;23.732;2024-01-07T10:12:55;92523.03;;;18.87;47.62
11329;BME280;5719;42.714;23.732;2024-01-07T10:15:22;92538.09;;;18.14;49.69
11329;BME280;5719;42.714;23.732;2024-01-07T10:17:50;92543.50;;;17.93;50.66
11329;BME280;5719;42.714;23.732;2024-01-07T10:20:21;92527.97;;;17.45;51.31
11329;BME280;5719;42.714;23.732;2024-01-07T10:22:50;92531.16;;;17.34;51.82
11329;BME280;5719;42.714;23.732;2024-01-07T10:25:18;92541.06;;;16.91;53.92
11329;BME280;5719;42.714;23.732;2024-01-07T10:27:45;92525.03;;;16.19;56.63
11329;BME280;5719;42.714;23.732;2024-01-07T10:30:13;92531.66;;;15.45;60.42
11329;BME280;5719;42.714;23.732;2024-01-07T10:32:42;92523.44;;;15.62;58.97
11329;BME280;5719;42.714;23.732;2024-01-07T10:35:13;92529.03;;;15.87;58.29
11329;BME280;5719;42.714;23.732;2024-01-07T10:37:41;92518.19;;;15.84;57.57
11329;BME280;5719;42.714;23.732;2024-01-07T10:40:11;92513.94;;;15.76;56.49
11329;BME280;5719;42.714;23.732;2024-01-07T10:42:40;92518.38;;;15.82;57.38
11329;BME280;5719;42.714;23.732;2024-01-07T10:45:09;92506.72;;;15.78;57.64
11329;BME280;5719;42.714;23.732;2024-01-07T10:47:40;92514.78;;;15.83;57.61
11329;BME280;5719;42.714;23.732;2024-01-07T10:50:08;92519.59;;;15.58;58.45
11329;BME280;5719;42.714;23.732;2024-01-07T10:52:40;92525.78;;;15.15;61.44
11329;BME280;5719;42.714;23.732;2024-01-07T10:55:09;92507.75;;;14.78;62.63
11329;BME280;5719;42.714;23.732;2024-01-07T10:57:44;92508.63;;;14.49;63.40
11329;BME280;5719;42.714;23.732;2024-01-07T11:00:13;92505.88;;;14.86;61.86
11329;BME280;5719;42.714;23.732;2024-01-07T11:02:51;92507.06;;;15.26;60.78
11329;BME280;5719;42.714;23.732;2024-01-07T11:05:25;92498.09;;;15.50;60.38
11329;BME280;5719;42.714;23.732;2024-01-07T11:07:57;92495.72;;;15.83;60.01
11329;BME280;5719;42.714;23.732;2024-01-07T11:10:34;92485.16;;;15.91;59.07
11329;BME280;5719;42.714;23.732;2024-01-07T11:13:05;92493.41;;;15.94;59.36
11329;BME280;5719;42.714;23.732;2024-01-07T11:15:51;92499.28;;;15.75;60.45
11329;BME280;5719;42.714;23.732;2024-01-07T11:18:18;92503.81;;;15.66;61.53
11329;BME280;5719;42.714;23.732;2024-01-07T11:20:46;92498.97;;;15.63;62.08
11329;BME280;5719;42.714;23.732;2024-01-07T11:23:29;92492.91;;;15.56;61.79
11329;BME280;5719;42.714;23.732;2024-01-07T11:25:58;92492.34;;;15.40;61.59
11329;BME280;5719;42.714;23.732;2024-01-07T11:28:50;92487.13;;;14.76;63.96
11329;BME280;5719;42.714;23.732;2024-01-07T11:31:19;92491.84;;;14.51;65.63
11329;BME280;5719;42.714;23.732;2024-01-07T11:33:47;92483.19;;;14.65;65.81
11329;BME280;5719;42.714;23.732;2024-01-07T11:36:15;92484.88;;;14.73;65.17
11329;BME280;5719;42.714;23.732;2024-01-07T11:38:43;92480.13;;;14.77;63.75
11329;BME280;5719;42.714;23.732;2024-01-07T11:41:12;92485.19;;;14.63;64.88
11329;BME280;5719;42.714;23.732;2024-01-07T11:43:53;92476.28;;;14.94;65.44
11329;BME280;5719;42.714;23.732;2024-01-07T11:46:21;92477.16;;;15.43;62.76
11329;BME280;5719;42.714;23.732;2024-01-07T11:48:48;92474.94;;;15.61;61.90
11329;BME280;5719;42.714;23.732;2024-01-07T11:51:15;92481.84;;;15.76;60.37
11329;BME280;5719;42.714;23.732;2024-01-07T11:53:46;92483.94;;;15.87;58.88
11329;BME280;5719;42.714;23.732;2024-01-07T11:56:12;92488.09;;;15.81;57.19
11329;BME280;5719;42.714;23.732;2024-01-07T11:58:40;92490.84;;;16.01;58.16
11329;BME280;5719;42.714;23.732;2024-01-07T12:01:08;92492.13;;;16.18;56.79
11329;BME280;5719;42.714;23.732;2024-01-07T12:03:35;92490.38;;;15.91;57.56
11329;BME280;5719;42.714;23.732;2024-01-07T12:06:02;92487.19;;;15.67;58.71
11329;BME280;5719;42.714;23.732;2024-01-07T12:08:30;92485.53;;;15.39;58.32
11329;BME280;5719;42.714;23.732;2024-01-07T12:10:57;92495.91;;;15.32;60.21
11329;BME280;5719;42.714;23.732;2024-01-07T12:13:24;92487.88;;;15.34;59.40
11329;BME280;5719;42.714;23.732;2024-01-07T12:15:51;92493.34;;;15.17;60.10
11329;BME280;5719;42.714;23.732;2024-01-07T12:18:19;92494.88;;;15.12;60.31
11329;BME280;5719;42.714;23.732;2024-01-07T12:20:55;92499.84;;;14.86;61.07
11329;BME280;5719;42.714;23.732;2024-01-07T12:23:22;92494.28;;;14.53;62.91
11329;BME280;5719;42.714;23.732;2024-01-07T12:25:49;92497.41;;;14.48;62.04
11329;BME280;5719;42.714;23.732;2024-01-07T12:28:17;92496.66;;;14.54;62.87
11329;BME280;5719;42.714;23.732;2024-01-07T12:30:44;92492.94;;;14.42;62.78
11329;BME280;5719;42.714;23.732;2024-01-07T12:33:10;92497.13;;;14.43;63.76
11329;BME280;5719;42.714;23.732;2024-01-07T12:35:39;92493.38;;;14.46;62.60
11329;BME280;5719;42.714;23.732;2024-01-07T12:38:05;92494.66;;;14.50;63.34
11329;BME280;5719;42.714;23.732;2024-01-07T12:40:32;92473.13;;;14.41;62.86
11329;BME280;5719;42.714;23.732;2024-01-07T12:43:00;92487.28;;;14.53;62.39
11329;BME280;5719;42.714;23.732;2024-01-07T12:45:27;92476.50;;;14.56;62.38
11329;BME280;5719;42.714;23.732;2024-01-07T12:47:54;92486.72;;;14.58;61.75
11329;BME280;5719;42.714;23.732;2024-01-07T12:50:24;92487.53;;;14.58;61.31
11329;BME280;5719;42.714;23.732;2024-01-07T12:52:54;92500.78;;;14.63;61.62
11329;BME280;5719;42.714;23.732;2024-01-07T12:55:22;92494.34;;;14.59;62.15
11329;BME280;5719;42.714;23.732;2024-01-07T12:57:49;92509.22;;;14.65;61.32
11329;BME280;5719;42.714;23.732;2024-01-07T13:00:16;92516.31;;;14.57;61.48
11329;BME280;5719;42.714;23.732;2024-01-07T13:02:44;92520.78;;;14.63;61.78